To NAV CANADA Home Page Login to a new session Search on AWWS site Feedback and Comments Disclaimer Vers la page française équivalente Tips FAQ What's new on the site To the Forecasts and Observations / NOTAM section To "File a Flight Plan" website Publications and other links Update of the User's profile FIC Telephone Numbers My Weather Data Folder Route Weather Data Regional Weather Data Local Weather Data To the Forecasts and Observations / NOTAM section
Request Generated 03/28/2017 at 19:46:13 UTC . Weather information available at that time is displayed.

METAR/TAF

WINDSOR/ON    

METAR CYQG 281900Z 36011KT 320V030 15SM OVC017 08/04 A3006 RMK SC8 CU
EMBD SLP186=
METAR CYQG 281800Z 36011G16KT 15SM OVC018 08/04 A3006 RMK SC8 CU EMBD
SLP183=
METAR CYQG 281700Z 03011KT 15SM OVC016 07/04 A3005 RMK SC8 CU EMBD
SLP182=

TAF CYQG 281741Z 2818/2918 03012KT P6SM OVC015 TEMPO 2818/2823 SCT015
BKN025
FM282300 03012KT P6SM FEW020
FM290300 03008KT P6SM SKC
FM291700 05008KT P6SM BKN180
RMK NXT FCST BY 290000Z=

LONDON/ON    

SPECI CYXU 281912Z 35009KT 15SM OVC015 08/04 A3001 RMK SC8 SLP168=
METAR CYXU 281900Z 36009KT 15SM OVC014 08/04 A3001 RMK SC8 SLP168=
METAR CYXU 281800Z 36008KT 15SM OVC013 07/04 A3001 RMK SC8 SLP168=
METAR CYXU 281700Z 36009KT 15SM OVC014 07/04 A3000 RMK SC8 SLP165=

TAF CYXU 281741Z 2818/2918 36010KT P6SM OVC012 TEMPO 2818/2820 SCT012
BKN030
FM282000 36010KT P6SM BKN020 TEMPO 2820/2823 SCT020
FM282300 36008KT P6SM FEW020
BECMG 2907/2909 05005KT
FM291500 07008KT P6SM SCT025
FM291700 06006KT P6SM BKN030
RMK NXT FCST BY 290000Z=

SARNIA (CHRIS HADFIELD)/ON    (show WxCam)

METAR CYZR 281900Z AUTO 36016G22KT 9SM OVC007 03/02 A3007 RMK SLP191=
METAR CYZR 281800Z AUTO 35015KT 9SM OVC007 04/02 A3007 RMK SLP190=
SPECI CYZR 281716Z AUTO 36013G21KT 9SM OVC007 04/02 A3007 RMK SLP190=
METAR CYZR 281700Z AUTO 36017KT 9SM OVC005 03/02 A3007 RMK SLP189=

TAF CYZR 281354Z 2814/2902 35012KT 4SM BR OVC003 TEMPO 2814/2816 P6SM
NSW SCT003 OVC008
FM281600 35012G22KT P6SM SCT005 OVC030 TEMPO 2816/2819 BKN005
FM281900 36015G25KT P6SM FEW030
RMK FCST BASED ON AUTO OBS. NXT FCST BY 282000Z=

KITCHENER/WATERLOO/ON    (show WxCam)

SPECI CYKF 281925Z AUTO 33013KT 290V350 9SM BKN022 11/05 A2998 RMK
SLP158=
SPECI CYKF 281914Z AUTO 31008G15KT 270V360 9SM SCT020 10/05 A2998 RMK
SLP157=
METAR CYKF 281900Z AUTO 32008KT 300V030 9SM BKN020 11/05 A2998 RMK
SLP157=
SPECI CYKF 281851Z AUTO 02006KT 320V030 9SM BKN020 10/04 A2998 RMK
SLP158=
SPECI CYKF 281848Z AUTO 35010KT 300V360 9SM SCT020 10/04 A2998 RMK
SLP158=
SPECI CYKF 281843Z AUTO 33010KT 300V030 9SM BKN020 11/05 A2998 RMK
SLP158=
SPECI CYKF 281833Z AUTO 02007KT 9SM SCT018 10/04 A2998 RMK SLP158=
METAR CYKF 281800Z AUTO 36009KT 330V040 9SM OVC018 09/04 A2998 RMK
SLP160=
METAR CYKF 281700Z AUTO 35008KT 9SM OVC016 08/04 A2998 RMK SLP160=

TAF CYKF 281354Z 2814/2902 35008KT P6SM SCT008 OVC030 TEMPO 2814/2816
5SM BR OVC008
FM281600 36010KT P6SM SCT012 OVC030 TEMPO 2816/2821 BKN012
FM282100 35012KT P6SM FEW020
BECMG 2822/2824 35005KT
RMK FCST BASED ON AUTO OBS. NXT FCST BY 282000Z=

HAMILTON/ON    

METAR CYHM 281900Z 01008KT 350V070 15SM BKN024 BKN042 10/05 A2998 RMK
SC6SC1 SLP158=
METAR CYHM 281800Z 02009KT 15SM FEW020 SCT025 BKN043 09/05 A2998 RMK
CU1SC2SC3 SLP157=
METAR CYHM 281700Z 05011G16KT 15SM FEW022 BKN032 BKN040 09/05 A2997
RMK CU1SC4SC2 SLP156=

TAF CYHM 281741Z 2818/2918 03012KT P6SM BKN030 TEMPO 2818/2821 BKN020
FM282300 03008KT P6SM FEW030
FM291500 05012KT P6SM BKN030
RMK NXT FCST BY 290000Z=

TORONTO/LESTER B. PEARSON INTL/ON    

METAR CYYZ 281900Z 36016KT 15SM BKN018 BKN090 08/04 A2999 RMK SC7AC1
AC TR SLP161=
METAR CYYZ 281800Z 34013G18KT 15SM BKN019 BKN025 BKN080 08/04 A2999
RMK SC5SC1AC1 SLP159=
METAR CYYZ 281700Z 34013G18KT 15SM OVC016 06/03 A2998 RMK SC8 SLP158=

TAF CYYZ 281741Z 2818/2924 35018KT P6SM BKN015 TEMPO 2818/2821 SCT015
FM282100 35018KT P6SM FEW020
FM291300 35012KT P6SM BKN030
FM291800 36012KT P6SM SCT030
FM292300 36012KT P6SM BKN200
RMK NXT FCST BY 282100Z=
Your time UTC time
Weather data provided by Environment Canada and NAV CANADA